Time;durP1;ratioP1;P1;durP2;ratioP2;P2;SDS_P1;SDS_P2;PMS_P1;PMS_P2;Temp;Humidity;BMP_temperature;BMP_pressure;BME280_temperature;BME280_humidity;BME280_pressure;Samples;Min_cycle;Max_cycle;Signal;HPM_P1;HPM_P2
2021/03/20 00:01:51;;;;;;;4.40;1.55;;;17.50;51.70;;;;;;5053674;28;20112;-77
2021/03/20 00:04:18;;;;;;;3.53;1.58;;;17.50;51.70;;;;;;5053215;28;20055;-78
2021/03/20 00:06:48;;;;;;;6.32;1.83;;;17.40;51.50;;;;;;5053611;28;20017;-76
2021/03/20 00:09:18;;;;;;;3.10;1.38;;;17.40;51.50;;;;;;5054116;28;20024;-78
2021/03/20 00:11:46;;;;;;;4.45;1.58;;;17.40;51.60;;;;;;5053549;28;20061;-77
2021/03/20 00:14:15;;;;;;;5.43;1.58;;;17.30;51.70;;;;;;5053119;28;20111;-77
2021/03/20 00:16:42;;;;;;;5.57;1.48;;;17.30;51.60;;;;;;5053996;28;20059;-77
2021/03/20 00:19:08;;;;;;;6.40;2.13;;;17.20;51.40;;;;;;5053910;28;20481;-77
2021/03/20 00:21:33;;;;;;;3.17;1.08;;;17.20;51.40;;;;;;5053898;28;20096;-76
2021/03/20 00:23:59;;;;;;;4.35;1.48;;;17.20;51.50;;;;;;5053812;28;20041;-77
2021/03/20 00:26:25;;;;;;;4.95;1.38;;;17.20;51.50;;;;;;5053647;28;20459;-77
2021/03/20 00:28:52;;;;;;;4.22;1.55;;;17.10;51.40;;;;;;5053814;28;20029;-77
2021/03/20 00:31:19;;;;;;;6.22;1.95;;;17.10;51.50;;;;;;5053445;28;20040;-77
2021/03/20 00:33:44;;;;;;;3.95;1.17;;;17.10;51.60;;;;;;5052891;28;20048;-77
2021/03/20 00:36:12;;;;;;;4.40;1.50;;;17.00;51.40;;;;;;5053412;28;20480;-78
2021/03/20 00:38:38;;;;;;;2.92;1.63;;;17.00;52.00;;;;;;5053329;28;20041;-77
2021/03/20 00:41:05;;;;;;;3.10;1.35;;;17.00;51.50;;;;;;5053293;28;20501;-76
2021/03/20 00:43:32;;;;;;;4.00;1.20;;;17.00;51.50;;;;;;5053749;28;20035;-76
2021/03/20 00:45:57;;;;;;;5.38;1.55;;;16.90;51.60;;;;;;5052781;28;20037;-77
2021/03/20 00:48:29;;;;;;;4.53;1.25;;;16.90;51.60;;;;;;5053160;28;20025;-76
2021/03/20 00:50:56;;;;;;;4.10;1.30;;;16.90;51.70;;;;;;5034968;28;20431;-77
2021/03/20 00:53:23;;;;;;;2.92;1.10;;;16.90;51.70;;;;;;5053229;28;20032;-76
2021/03/20 00:55:49;;;;;;;4.13;1.60;;;16.80;51.60;;;;;;5052914;28;20091;-77
2021/03/20 00:58:22;;;;;;;4.32;2.08;;;16.80;51.70;;;;;;5053200;28;20382;-76
2021/03/20 01:00:48;;;;;;;2.97;1.40;;;16.80;51.70;;;;;;5052715;28;20032;-77
2021/03/20 01:03:14;;;;;;;3.47;1.20;;;16.80;51.80;;;;;;5052625;28;20100;-77
2021/03/20 01:05:40;;;;;;;2.53;0.98;;;16.70;51.60;;;;;;5052479;28;20124;-77
2021/03/20 01:08:06;;;;;;;3.03;1.13;;;16.70;51.60;;;;;;5053359;28;20045;-77
2021/03/20 01:10:32;;;;;;;3.92;1.13;;;16.70;51.60;;;;;;5053015;28;20495;-78
2021/03/20 01:12:58;;;;;;;4.82;1.25;;;16.60;51.50;;;;;;5052449;28;20048;-77
2021/03/20 01:15:24;;;;;;;6.38;1.50;;;16.60;51.50;;;;;;5052459;28;20496;-76
2021/03/20 01:17:49;;;;;;;2.70;1.17;;;16.60;51.50;;;;;;5034659;28;20033;-77
2021/03/20 01:20:16;;;;;;;3.22;1.10;;;16.60;51.50;;;;;;5052830;28;20021;-77
2021/03/20 01:22:42;;;;;;;2.65;1.13;;;16.50;51.50;;;;;;5052530;28;20035;-76
2021/03/20 01:25:09;;;;;;;4.07;1.67;;;16.50;51.60;;;;;;5052859;28;20063;-77
2021/03/20 01:27:35;;;;;;;3.38;1.20;;;16.60;51.60;;;;;;5052931;28;20115;-76
2021/03/20 01:30:03;;;;;;;6.22;1.45;;;16.50;51.60;;;;;;5051942;28;20112;-76
2021/03/20 01:32:29;;;;;;;3.80;1.17;;;16.50;51.60;;;;;;5052580;28;20029;-77
2021/03/20 01:34:54;;;;;;;5.85;1.35;;;16.50;51.60;;;;;;5052052;28;20078;-77
2021/03/20 01:37:20;;;;;;;2.85;1.27;;;16.50;51.60;;;;;;5052200;28;20485;-77
2021/03/20 01:39:46;;;;;;;4.38;1.52;;;16.40;51.50;;;;;;5052648;28;20021;-77
2021/03/20 01:42:12;;;;;;;5.22;1.25;;;16.40;51.50;;;;;;5051787;28;20048;-77
2021/03/20 01:44:37;;;;;;;3.78;1.45;;;16.40;51.50;;;;;;5052312;28;20044;-76
2021/03/20 01:47:09;;;;;;;4.75;1.70;;;16.30;51.60;;;;;;5052009;28;20406;-76
2021/03/20 01:49:45;;;;;;;7.15;1.65;;;16.40;51.60;;;;;;5051791;28;20467;-77
2021/03/20 01:52:19;;;;;;;3.67;1.00;;;16.40;51.60;;;;;;5051939;28;20072;-77
2021/03/20 01:54:53;;;;;;;3.72;1.10;;;16.30;51.50;;;;;;5044754;28;20037;-78
2021/03/20 01:57:41;;;;;;;3.35;1.13;;;16.30;51.50;;;;;;5051896;28;20028;-78
2021/03/20 02:00:11;;;;;;;4.35;1.17;;;16.30;51.60;;;;;;5052654;28;20025;-78
2021/03/20 02:02:36;;;;;;;2.80;1.10;;;16.20;51.60;;;;;;5051277;28;20447;-77
2021/03/20 02:05:04;;;;;;;3.67;1.38;;;16.20;51.60;;;;;;5051455;28;20043;-78
2021/03/20 02:07:30;;;;;;;3.55;1.15;;;16.20;51.60;;;;;;5051626;28;20837;-78
2021/03/20 02:09:56;;;;;;;3.75;1.33;;;16.20;51.60;;;;;;5052039;28;20021;-79
2021/03/20 02:12:28;;;;;;;3.42;1.00;;;16.20;51.50;;;;;;5051602;28;20059;-77
2021/03/20 02:15:15;;;;;;;4.70;1.40;;;16.10;51.60;;;;;;5051484;28;20017;-76
2021/03/20 02:18:22;;;;;;;5.45;1.05;;;16.10;51.70;;;;;;5051818;28;20059;-77
2021/03/20 02:21:16;;;;;;;3.58;1.33;;;16.10;51.60;;;;;;4990371;28;20081;-77
2021/03/20 02:24:02;;;;;;;2.88;1.10;;;16.10;51.70;;;;;;5051798;28;20029;-76
2021/03/20 02:26:46;;;;;;;3.75;1.17;;;16.00;51.60;;;;;;5051669;28;20032;-77
2021/03/20 02:29:32;;;;;;;5.32;1.38;;;16.00;51.70;;;;;;5051798;28;20021;-80
2021/03/20 02:32:21;;;;;;;3.25;1.15;;;16.00;51.70;;;;;;5051510;28;20036;-79
2021/03/20 02:35:03;;;;;;;4.82;1.13;;;16.00;51.80;;;;;;5046380;28;20385;-77
2021/03/20 02:37:49;;;;;;;3.70;1.20;;;15.90;51.70;;;;;;5051273;28;20386;-78
2021/03/20 02:40:22;;;;;;;3.45;1.08;;;15.90;51.90;;;;;;5051051;28;20059;-79
2021/03/20 02:43:05;;;;;;;3.50;0.95;;;15.90;51.80;;;;;;5051206;28;20017;-80
2021/03/20 02:45:43;;;;;;;3.65;1.00;;;15.80;51.90;;;;;;5051017;28;20065;-77
2021/03/20 02:48:32;;;;;;;2.55;1.00;;;15.80;51.90;;;;;;5013904;28;20392;-79
2021/03/20 02:51:22;;;;;;;3.03;0.88;;;15.80;52.00;;;;;;5031540;28;20040;-80
2021/03/20 02:54:16;;;;;;;3.17;0.98;;;15.70;51.90;;;;;;5032528;28;20032;-80
2021/03/20 02:56:56;;;;;;;4.40;1.20;;;15.70;51.80;;;;;;5034781;28;20567;-79
2021/03/20 02:59:25;;;;;;;3.78;1.45;;;15.70;51.90;;;;;;5052666;28;20485;-80
2021/03/20 03:01:54;;;;;;;4.82;1.08;;;15.70;51.90;;;;;;5054973;28;20032;-80
2021/03/20 03:04:22;;;;;;;2.53;1.20;;;15.70;51.90;;;;;;5054586;28;20036;-79
2021/03/20 03:06:58;;;;;;;3.95;0.95;;;15.60;51.90;;;;;;5055363;28;20060;-80
2021/03/20 03:09:40;;;;;;;4.35;1.10;;;15.60;52.00;;;;;;5055250;28;20085;-78
2021/03/20 03:12:13;;;;;;;3.38;1.20;;;15.60;52.10;;;;;;5055464;28;20049;-80
2021/03/20 03:14:52;;;;;;;3.83;1.20;;;15.50;52.10;;;;;;5055372;28;20025;-80
2021/03/20 03:17:21;;;;;;;4.03;1.00;;;15.50;52.10;;;;;;5055228;28;20029;-79
2021/03/20 03:19:58;;;;;;;2.42;0.90;;;15.50;51.90;;;;;;5055153;28;20541;-80
2021/03/20 03:22:33;;;;;;;3.30;1.20;;;15.40;52.00;;;;;;5055282;28;20029;-80
2021/03/20 03:25:03;;;;;;;3.50;0.98;;;15.40;52.70;;;;;;5054711;28;20031;-79
2021/03/20 03:27:33;;;;;;;3.50;1.10;;;15.40;52.00;;;;;;5055049;28;20104;-80
2021/03/20 03:29:58;;;;;;;5.43;1.50;;;15.40;52.00;;;;;;5054751;28;20408;-80
2021/03/20 03:32:34;;;;;;;3.40;1.10;;;15.30;52.00;;;;;;5054747;28;20037;-80
2021/03/20 03:35:20;;;;;;;3.03;0.85;;;15.30;52.10;;;;;;5054503;28;20549;-80
2021/03/20 03:38:15;;;;;;;5.57;1.05;;;15.30;52.10;;;;;;5054640;28;20032;-80
2021/03/20 03:40:46;;;;;;;1.85;0.75;;;15.30;52.10;;;;;;5055239;28;20471;-79
2021/03/20 03:43:12;;;;;;;3.35;1.00;;;15.30;52.20;;;;;;5054892;28;20441;-78
2021/03/20 03:45:38;;;;;;;2.83;1.00;;;15.30;52.10;;;;;;5054094;28;20067;-79
2021/03/20 03:48:04;;;;;;;2.85;1.00;;;15.30;52.10;;;;;;5054033;28;20112;-80
2021/03/20 03:50:35;;;;;;;3.97;0.90;;;15.20;52.00;;;;;;5054274;28;20094;-78
2021/03/20 03:53:08;;;;;;;3.72;1.05;;;15.20;52.10;;;;;;5054042;28;20039;-78
2021/03/20 03:55:34;;;;;;;3.40;1.10;;;15.20;52.00;;;;;;5054532;28;20511;-79
2021/03/20 03:58:27;;;;;;;3.35;1.08;;;15.20;52.10;;;;;;5054055;28;20072;-79
2021/03/20 04:01:05;;;;;;;4.22;1.40;;;15.20;52.10;;;;;;5053991;28;20029;-78
2021/03/20 04:03:40;;;;;;;4.00;1.23;;;15.20;52.10;;;;;;5053836;28;20037;-78
2021/03/20 04:06:30;;;;;;;3.53;0.87;;;15.20;52.20;;;;;;5053980;28;20032;-79
2021/03/20 04:09:26;;;;;;;2.95;0.70;;;15.20;52.10;;;;;;5053907;28;20032;-79
2021/03/20 04:12:10;;;;;;;2.45;0.75;;;15.20;52.20;;;;;;5053213;28;20519;-78
2021/03/20 04:14:51;;;;;;;4.63;1.10;;;15.20;52.20;;;;;;5053804;28;20025;-80
2021/03/20 04:17:22;;;;;;;2.55;1.00;;;15.10;52.20;;;;;;5054205;28;20400;-78
2021/03/20 04:20:10;;;;;;;3.60;1.20;;;15.10;52.20;;;;;;5053674;28;20068;-80
2021/03/20 04:22:46;;;;;;;2.90;0.80;;;15.20;52.30;;;;;;5052654;28;20440;-79
2021/03/20 04:25:30;;;;;;;6.30;1.20;;;15.10;52.30;;;;;;5053753;28;20055;-79
2021/03/20 04:28:22;;;;;;;4.28;1.00;;;15.10;52.30;;;;;;5053595;28;20392;-79
2021/03/20 04:30:55;;;;;;;2.80;0.77;;;15.10;52.30;;;;;;5045788;28;20053;-79
2021/03/20 04:33:25;;;;;;;4.05;1.08;;;15.10;52.30;;;;;;5053327;28;20040;-78
2021/03/20 04:36:02;;;;;;;2.35;0.70;;;15.10;52.40;;;;;;5053324;28;20037;-79
2021/03/20 04:38:28;;;;;;;2.90;0.95;;;15.10;52.40;;;;;;5052483;28;20446;-79
2021/03/20 04:40:58;;;;;;;3.25;0.90;;;15.10;52.40;;;;;;5053523;28;20108;-80
2021/03/20 04:43:29;;;;;;;2.92;1.25;;;15.10;52.40;;;;;;5053494;28;20021;-80
2021/03/20 04:45:58;;;;;;;4.90;1.17;;;15.00;52.40;;;;;;5053239;28;20029;-80
2021/03/20 04:48:33;;;;;;;2.28;0.90;;;15.10;52.40;;;;;;5052641;28;20028;-79
2021/03/20 04:51:24;;;;;;;3.00;1.05;;;15.00;52.40;;;;;;5053332;28;20059;-79
2021/03/20 04:54:08;;;;;;;2.17;0.95;;;15.10;52.50;;;;;;5053247;28;20041;-80
2021/03/20 04:56:51;;;;;;;3.70;1.38;;;15.00;52.40;;;;;;5053063;28;20021;-79
2021/03/20 04:59:35;;;;;;;2.97;1.20;;;15.00;52.40;;;;;;5053676;28;20147;-79
2021/03/20 05:02:09;;;;;;;3.65;1.20;;;15.00;52.40;;;;;;5052607;28;20039;-79
2021/03/20 05:04:38;;;;;;;3.67;1.00;;;15.00;52.40;;;;;;5045975;28;20029;-78
2021/03/20 05:07:05;;;;;;;5.18;0.93;;;15.00;52.40;;;;;;5052299;28;20018;-75
2021/03/20 05:09:31;;;;;;;3.13;1.05;;;15.00;52.50;;;;;;5053014;28;20538;-79
2021/03/20 05:12:00;;;;;;;4.13;1.60;;;15.00;52.40;;;;;;5053118;28;20033;-79
2021/03/20 05:14:46;;;;;;;1.98;0.90;;;15.00;52.40;;;;;;5052909;28;20079;-78
2021/03/20 05:17:16;;;;;;;2.55;0.70;;;15.00;52.40;;;;;;5052713;28;20029;-78
2021/03/20 05:19:41;;;;;;;3.47;1.30;;;15.00;52.40;;;;;;5052515;28;20025;-78
2021/03/20 05:22:12;;;;;;;2.92;0.90;;;15.00;52.40;;;;;;5052197;28;20384;-77
2021/03/20 05:24:38;;;;;;;4.72;1.33;;;15.00;52.40;;;;;;5052391;28;20499;-76
2021/03/20 05:27:08;;;;;;;4.20;1.05;;;15.00;52.50;;;;;;5052343;28;20057;-79
2021/03/20 05:29:34;;;;;;;2.88;1.10;;;15.00;52.50;;;;;;5052786;28;20100;-79
2021/03/20 05:32:02;;;;;;;2.25;1.23;;;15.00;52.60;;;;;;5051792;28;20121;-78
2021/03/20 05:34:38;;;;;;;3.33;1.15;;;14.90;52.50;;;;;;5052302;28;20547;-76
2021/03/20 05:37:04;;;;;;;;;;;14.90;52.50;;;;;;5052002;28;20033;-75
2021/03/20 05:39:30;;;;;;;;;;;14.90;52.50;;;;;;5052503;28;19968;-79
2021/03/20 05:41:58;;;;;;;2.77;0.93;;;14.90;52.60;;;;;;5052261;28;19951;-79
2021/03/20 05:44:58;;;;;;;2.47;1.17;;;14.90;52.50;;;;;;5052622;28;20477;-78
2021/03/20 05:47:41;;;;;;;2.92;1.17;;;14.90;52.50;;;;;;5052048;28;20021;-79
2021/03/20 05:50:16;;;;;;;3.60;1.00;;;14.90;52.60;;;;;;5051913;28;20033;-79
2021/03/20 05:53:05;;;;;;;4.57;1.35;;;14.90;52.50;;;;;;5052160;28;20040;-79
2021/03/20 05:55:34;;;;;;;4.38;1.65;;;14.90;52.50;;;;;;5052103;28;20062;-79
2021/03/20 05:58:23;;;;;;;3.95;1.67;;;14.90;52.60;;;;;;5052202;28;20065;-80
2021/03/20 06:01:14;;;;;;;3.60;1.88;;;14.90;52.70;;;;;;5051596;28;20118;-78
2021/03/20 06:03:58;;;;;;;3.85;1.30;;;14.90;52.60;;;;;;5051904;28;20064;-80
2021/03/20 06:06:41;;;;;;;3.00;1.00;;;14.90;52.50;;;;;;5051887;28;20439;-79
2021/03/20 06:09:28;;;;;;;4.03;1.48;;;14.90;52.60;;;;;;5051274;28;20143;-80
2021/03/20 06:12:12;;;;;;;2.78;1.50;;;14.90;52.60;;;;;;5052043;28;20040;-79
2021/03/20 06:14:56;;;;;;;4.72;1.58;;;14.90;52.70;;;;;;5051786;28;20025;-78
2021/03/20 06:17:59;;;;;;;5.13;2.22;;;14.90;52.60;;;;;;5051748;28;20037;-78
2021/03/20 06:20:55;;;;;;;3.50;1.42;;;14.80;52.70;;;;;;5051923;28;20021;-78
2021/03/20 06:23:41;;;;;;;3.20;1.27;;;14.80;52.60;;;;;;5051661;28;20548;-79
2021/03/20 06:26:19;;;;;;;3.42;1.80;;;14.80;52.60;;;;;;5051381;28;20037;-80
2021/03/20 06:28:56;;;;;;;2.50;1.25;;;14.80;52.60;;;;;;5051554;28;20104;-79
2021/03/20 06:31:37;;;;;;;3.95;1.75;;;14.80;52.70;;;;;;5051531;28;20481;-80
2021/03/20 06:34:11;;;;;;;2.33;1.70;;;14.80;52.60;;;;;;5050901;28;20028;-79
2021/03/20 06:36:45;;;;;;;2.97;1.40;;;14.80;52.70;;;;;;5051046;28;20025;-80
2021/03/20 06:39:34;;;;;;;3.08;1.70;;;14.80;52.60;;;;;;5051088;28;20066;-78
2021/03/20 06:42:21;;;;;;;4.60;1.80;;;14.80;52.70;;;;;;5051255;28;20441;-79
2021/03/20 06:44:49;;;;;;;4.85;1.90;;;14.80;52.70;;;;;;5051250;28;20374;-79
2021/03/20 06:47:18;;;;;;;3.13;1.88;;;14.80;52.80;;;;;;5051506;28;20492;-79
2021/03/20 06:49:46;;;;;;;4.40;1.90;;;14.70;52.70;;;;;;5051242;28;20033;-79
2021/03/20 06:52:19;;;;;;;3.90;1.98;;;14.70;52.60;;;;;;5050986;28;20032;-78
2021/03/20 06:54:47;;;;;;;4.18;2.20;;;14.80;52.80;;;;;;5051339;28;20024;-78
2021/03/20 06:57:12;;;;;;;3.03;1.95;;;14.70;52.70;;;;;;5051194;28;20025;-78
2021/03/20 06:59:38;;;;;;;4.53;2.35;;;14.80;52.90;;;;;;5051139;28;20078;-77
2021/03/20 07:02:24;;;;;;;3.28;1.80;;;14.80;52.80;;;;;;5050643;28;20025;-77
2021/03/20 07:05:22;;;;;;;3.88;1.88;;;14.70;52.70;;;;;;5051086;28;20033;-77
2021/03/20 07:08:09;;;;;;;4.45;2.33;;;14.70;52.90;;;;;;5010419;28;20044;-77
2021/03/20 07:10:41;;;;;;;3.88;2.22;;;14.70;52.90;;;;;;5049748;28;20107;-76
2021/03/20 07:13:13;;;;;;;4.68;2.85;;;14.70;52.80;;;;;;5051459;28;20059;-76
2021/03/20 07:15:39;;;;;;;9.07;2.58;;;14.80;52.90;;;;;;5051071;28;20433;-76
2021/03/20 07:18:16;;;;;;;4.93;2.38;;;14.90;52.80;;;;;;5050960;28;20078;-76
2021/03/20 07:20:43;;;;;;;3.70;1.52;;;15.00;52.70;;;;;;5050873;28;20025;-78
2021/03/20 07:23:13;;;;;;;4.47;1.98;;;15.10;52.70;;;;;;5049144;28;20100;-76
2021/03/20 07:25:42;;;;;;;4.32;1.55;;;15.20;52.60;;;;;;5047669;28;20017;-77
2021/03/20 07:28:19;;;;;;;2.83;1.35;;;15.40;52.70;;;;;;5050544;28;20029;-77
2021/03/20 07:31:09;;;;;;;6.53;1.70;;;15.50;52.40;;;;;;5050702;28;20098;-76
2021/03/20 07:33:47;;;;;;;6.00;1.63;;;15.60;52.70;;;;;;5050336;28;20480;-77
2021/03/20 07:36:33;;;;;;;2.22;1.20;;;15.70;53.10;;;;;;5050071;28;20028;-76
2021/03/20 07:39:24;;;;;;;4.80;1.70;;;15.90;53.10;;;;;;5048366;28;20516;-77
2021/03/20 07:42:02;;;;;;;6.18;1.77;;;16.00;53.40;;;;;;5039774;28;20312;-77
2021/03/20 07:44:46;;;;;;;3.92;1.65;;;16.10;53.20;;;;;;5049619;28;20033;-76
2021/03/20 07:47:15;;;;;;;3.97;1.45;;;16.20;53.00;;;;;;5053215;28;20025;-75
2021/03/20 07:49:41;;;;;;;2.58;1.35;;;16.30;53.00;;;;;;5052342;28;20074;-74
2021/03/20 07:52:28;;;;;;;2.47;1.50;;;16.40;52.90;;;;;;5051710;28;20025;-75
2021/03/20 07:55:17;;;;;;;3.08;1.42;;;16.50;53.10;;;;;;5034729;28;20508;-78
2021/03/20 07:58:00;;;;;;;3.65;1.52;;;16.70;53.20;;;;;;5053074;28;20476;-77
2021/03/20 08:00:47;;;;;;;5.35;1.75;;;16.80;53.20;;;;;;5053568;28;20492;-78
2021/03/20 08:03:19;;;;;;;3.63;1.48;;;16.90;52.80;;;;;;5049793;28;20021;-77
2021/03/20 08:05:45;;;;;;;2.50;1.30;;;17.10;52.70;;;;;;5051701;28;20024;-76
2021/03/20 08:08:26;;;;;;;4.07;1.40;;;17.20;52.40;;;;;;5051386;28;20074;-76
2021/03/20 08:10:59;;;;;;;4.90;1.27;;;17.30;52.10;;;;;;5047968;28;20514;-76
2021/03/20 08:13:31;;;;;;;4.20;1.42;;;17.40;51.90;;;;;;5051504;28;20844;-76
2021/03/20 08:15:57;;;;;;;3.22;1.15;;;17.60;51.60;;;;;;5050717;28;20036;-77
2021/03/20 08:18:52;;;;;;;2.80;1.30;;;17.70;51.40;;;;;;5051876;28;20488;-74
2021/03/20 08:21:20;;;;;;;6.97;1.98;;;17.80;51.20;;;;;;5048955;28;20455;-74
2021/03/20 08:24:06;;;;;;;7.80;2.40;;;17.80;50.90;;;;;;5050950;28;20021;-73
2021/03/20 08:26:40;;;;;;;6.32;2.10;;;17.90;51.00;;;;;;5021614;28;20091;-74
2021/03/20 08:29:43;;;;;;;4.85;3.03;;;18.00;50.90;;;;;;5053022;28;20013;-74
2021/03/20 08:32:43;;;;;;;4.13;2.55;;;18.00;50.90;;;;;;5053234;28;20092;-73
2021/03/20 08:35:33;;;;;;;5.25;2.20;;;18.10;51.20;;;;;;5048749;28;20056;-76
2021/03/20 08:38:26;;;;;;;5.25;2.40;;;18.20;51.10;;;;;;5044864;28;20060;-73
2021/03/20 08:40:57;;;;;;;5.55;2.75;;;18.30;50.60;;;;;;5037260;28;20025;-75
2021/03/20 08:44:08;;;;;;;5.30;2.90;;;18.30;50.50;;;;;;5052038;28;20020;-74
2021/03/20 08:47:01;;;;;;;9.13;3.20;;;18.50;50.90;;;;;;5038753;28;20072;-73
2021/03/20 08:49:50;;;;;;;3.80;2.33;;;18.60;51.80;;;;;;5052944;28;20120;-73
2021/03/20 08:52:24;;;;;;;4.22;2.30;;;18.70;51.20;;;;;;5051343;28;20036;-74
2021/03/20 08:55:15;;;;;;;8.18;2.20;;;18.70;51.20;;;;;;5047893;28;20033;-73
2021/03/20 08:58:29;;;;;;;2.85;1.95;;;18.80;51.20;;;;;;5052325;28;20791;-73
2021/03/20 09:00:57;;;;;;;3.50;2.10;;;18.90;51.20;;;;;;5028226;28;20041;-74
2021/03/20 09:03:42;;;;;;;4.35;2.30;;;18.90;50.90;;;;;;5051586;28;20096;-76
2021/03/20 09:06:15;;;;;;;2.90;2.00;;;19.00;50.80;;;;;;5046717;28;20025;-74
2021/03/20 09:08:42;;;;;;;3.85;1.90;;;19.10;50.60;;;;;;5051336;28;20021;-74
2021/03/20 09:11:24;;;;;;;3.95;1.95;;;19.10;50.40;;;;;;5052029;28;20037;-72
2021/03/20 09:14:09;;;;;;;5.07;2.10;;;19.20;50.30;;;;;;5051418;28;20021;-71
2021/03/20 09:16:42;;;;;;;4.90;2.35;;;19.30;50.10;;;;;;5050947;28;20032;-73
2021/03/20 09:19:32;;;;;;;5.22;2.17;;;19.30;50.30;;;;;;5051347;28;20481;-72
2021/03/20 09:22:15;;;;;;;8.68;2.33;;;19.40;49.60;;;;;;5028522;28;20049;-74
2021/03/20 09:24:51;;;;;;;5.97;2.08;;;19.40;49.60;;;;;;5050356;28;20119;-73
2021/03/20 09:27:54;;;;;;;8.85;2.40;;;19.40;49.80;;;;;;5051145;28;20076;-73
2021/03/20 09:30:28;;;;;;;6.18;2.60;;;19.50;49.70;;;;;;5050933;28;20045;-74
2021/03/20 09:32:54;;;;;;;4.72;2.28;;;19.60;50.00;;;;;;5051445;28;20044;-72
2021/03/20 09:35:25;;;;;;;5.68;2.20;;;19.60;49.80;;;;;;5051459;28;20017;-74
2021/03/20 09:37:53;;;;;;;7.28;2.22;;;19.70;50.30;;;;;;5050959;28;20132;-74
2021/03/20 09:40:46;;;;;;;4.72;2.10;;;19.80;50.30;;;;;;5049938;28;20021;-73
2021/03/20 09:43:22;;;;;;;4.93;2.25;;;19.80;50.30;;;;;;5041190;28;20052;-78
2021/03/20 09:46:25;;;;;;;4.43;2.25;;;19.80;50.10;;;;;;5051142;28;20396;-73
2021/03/20 09:48:51;;;;;;;7.15;2.00;;;19.80;50.20;;;;;;5035504;28;20033;-73
2021/03/20 09:52:09;;;;;;;5.85;2.25;;;19.90;50.40;;;;;;5048438;28;20029;-73
2021/03/20 09:54:44;;;;;;;7.70;2.28;;;19.90;50.40;;;;;;5048177;28;20515;-76
2021/03/20 09:59:41;;;;;;;3.70;2.50;;;20.00;50.30;;;;;;5050518;28;20033;-74
2021/03/20 10:02:10;;;;;;;4.97;2.13;;;20.00;49.90;;;;;;5050154;28;20032;-72
2021/03/20 10:04:56;;;;;;;4.10;2.38;;;20.00;49.80;;;;;;5049468;28;20044;-73
2021/03/20 10:07:21;;;;;;;3.35;1.75;;;20.00;49.40;;;;;;5051111;28;20059;-73
2021/03/20 10:10:13;;;;;;;8.52;2.10;;;20.10;49.60;;;;;;5049171;28;20048;-80
2021/03/20 10:12:44;;;;;;;3.70;1.90;;;20.20;49.60;;;;;;5049976;28;20028;-77
2021/03/20 10:15:16;;;;;;;3.72;2.25;;;20.20;49.30;;;;;;5048569;28;20560;-79
2021/03/20 10:18:06;;;;;;;5.25;2.15;;;20.20;49.10;;;;;;5049695;28;20085;-79
2021/03/20 10:20:49;;;;;;;6.47;2.17;;;20.30;49.00;;;;;;5049353;28;20059;-78
2021/03/20 10:23:35;;;;;;;3.85;1.88;;;20.40;48.80;;;;;;5038636;28;20040;-78
2021/03/20 10:26:11;;;;;;;4.15;2.35;;;20.40;48.70;;;;;;5050354;28;20166;-79
2021/03/20 10:28:47;;;;;;;3.67;1.70;;;20.50;48.60;;;;;;5050574;28;20393;-80
2021/03/20 10:31:13;;;;;;;;;;;20.50;48.30;;;;;;5049842;28;20075;-79
2021/03/20 10:33:42;;;;;;;4.05;2.25;;;20.60;48.30;;;;;;5050548;28;19908;-79
2021/03/20 10:36:09;;;;;;;5.18;1.90;;;20.60;48.10;;;;;;5045832;28;20036;-79
2021/03/20 10:38:35;;;;;;;5.35;2.92;;;20.60;48.00;;;;;;5031777;28;20029;-78
2021/03/20 10:41:08;;;;;;;4.22;1.95;;;20.60;47.90;;;;;;5049698;28;20087;-78
2021/03/20 10:43:46;;;;;;;3.55;1.83;;;20.70;48.10;;;;;;5049277;28;20036;-78
2021/03/20 10:46:31;;;;;;;4.82;1.98;;;20.60;47.80;;;;;;5050468;28;20396;-80
2021/03/20 10:48:59;;;;;;;2.40;1.48;;;20.70;47.80;;;;;;5048737;28;20068;-79
2021/03/20 10:51:32;;;;;;;4.20;1.38;;;20.60;47.90;;;;;;5044748;28;20029;-78
2021/03/20 10:54:10;;;;;;;3.72;1.40;;;20.60;48.20;;;;;;5049408;28;20155;-79
2021/03/20 10:56:39;;;;;;;4.38;1.50;;;20.70;48.10;;;;;;5049680;28;20033;-75
2021/03/20 10:59:30;;;;;;;3.33;1.50;;;20.70;48.00;;;;;;5049005;28;20033;-77
2021/03/20 11:01:56;;;;;;;3.35;1.67;;;20.70;48.00;;;;;;5050455;28;20030;-74
2021/03/20 11:04:33;;;;;;;4.35;1.90;;;20.70;48.30;;;;;;5050125;28;20111;-75
2021/03/20 11:07:01;;;;;;;3.60;1.60;;;20.70;47.90;;;;;;5050696;28;20082;-78
2021/03/20 11:09:31;;;;;;;1.98;1.25;;;20.70;48.00;;;;;;5048859;28;20025;-79
2021/03/20 11:12:01;;;;;;;2.20;1.40;;;20.70;48.00;;;;;;5051816;28;20040;-75
2021/03/20 11:14:28;;;;;;;2.92;1.30;;;20.70;48.20;;;;;;5050208;28;20051;-75
2021/03/20 11:17:05;;;;;;;5.07;1.75;;;20.80;48.20;;;;;;5050116;28;20074;-73
2021/03/20 11:19:35;;;;;;;3.83;1.30;;;20.80;48.10;;;;;;5050401;28;20055;-76
2021/03/20 11:22:33;;;;;;;2.55;1.30;;;20.90;48.30;;;;;;5052219;28;20036;-75
2021/03/20 11:25:08;;;;;;;3.05;1.35;;;20.80;48.30;;;;;;5054602;28;20017;-78
2021/03/20 11:27:37;;;;;;;2.30;1.00;;;20.90;48.20;;;;;;5053955;28;20467;-78
2021/03/20 11:30:17;;;;;;;1.83;1.02;;;20.90;48.50;;;;;;5052915;28;20457;-78
2021/03/20 11:32:46;;;;;;;4.10;1.08;;;21.00;49.20;;;;;;5053010;28;20032;-79
2021/03/20 11:35:27;;;;;;;1.25;0.90;;;21.00;48.80;;;;;;5054123;28;20025;-76
2021/03/20 11:37:59;;;;;;;3.30;1.08;;;21.00;48.80;;;;;;5053741;28;20025;-75
2021/03/20 11:40:32;;;;;;;2.75;1.00;;;21.10;48.70;;;;;;5053814;28;20028;-74
2021/03/20 11:43:04;;;;;;;2.80;1.15;;;21.10;48.70;;;;;;5052346;28;20032;-74
2021/03/20 11:45:34;;;;;;;2.60;1.27;;;21.10;48.50;;;;;;5054012;28;20029;-75
2021/03/20 11:48:30;;;;;;;2.50;1.38;;;21.10;48.60;;;;;;5052625;28;20059;-75
2021/03/20 11:50:57;;;;;;;2.45;1.27;;;21.10;48.70;;;;;;5027812;28;20404;-77
2021/03/20 11:53:47;;;;;;;3.30;1.38;;;21.10;48.80;;;;;;5051919;28;20485;-75
2021/03/20 11:56:19;;;;;;;2.22;1.05;;;21.00;48.80;;;;;;5046122;28;20064;-76
2021/03/20 11:58:52;;;;;;;3.13;1.40;;;21.00;48.80;;;;;;5053602;28;20047;-76
2021/03/20 12:01:26;;;;;;;1.52;0.82;;;21.00;48.80;;;;;;5052065;28;20064;-76
2021/03/20 12:03:52;;;;;;;4.10;1.13;;;21.10;50.00;;;;;;5044508;28;20104;-72
2021/03/20 12:06:18;;;;;;;3.58;1.65;;;21.00;49.40;;;;;;5035865;28;20559;-75
2021/03/20 12:08:45;;;;;;;5.45;1.27;;;21.10;49.30;;;;;;5050763;28;20017;-74
2021/03/20 12:11:14;;;;;;;4.65;1.45;;;21.10;49.20;;;;;;5052897;28;20048;-72
2021/03/20 12:13:49;;;;;;;8.35;1.80;;;21.10;49.00;;;;;;5052885;28;20080;-71
2021/03/20 12:16:33;;;;;;;12.82;1.80;;;21.20;49.00;;;;;;5052537;28;20033;-72
2021/03/20 12:19:12;;;;;;;8.43;1.52;;;21.20;49.00;;;;;;5050833;28;20016;-72
2021/03/20 12:21:59;;;;;;;10.52;1.70;;;21.20;48.90;;;;;;5060038;28;20023;-72
2021/03/20 12:24:43;;;;;;;7.25;1.70;;;21.20;48.80;;;;;;5051470;28;20086;-72
2021/03/20 12:27:27;;;;;;;3.35;1.55;;;21.20;48.50;;;;;;5050107;28;20043;-73
2021/03/20 12:30:21;;;;;;;4.20;1.45;;;21.20;48.60;;;;;;5048196;28;20086;-73
2021/03/20 12:32:51;;;;;;;4.75;1.45;;;21.30;48.60;;;;;;5051094;28;20071;-73
2021/03/20 12:35:19;;;;;;;4.20;1.58;;;21.30;48.60;;;;;;5051023;28;20104;-73
2021/03/20 12:38:09;;;;;;;4.30;1.48;;;21.30;48.50;;;;;;5051013;28;20033;-72
2021/03/20 12:40:35;;;;;;;6.53;1.38;;;21.30;48.40;;;;;;5049680;28;20036;-73
2021/03/20 12:43:07;;;;;;;4.68;1.30;;;21.40;48.20;;;;;;5051666;28;20036;-72
2021/03/20 12:45:34;;;;;;;6.47;1.85;;;21.40;48.40;;;;;;5032721;28;20036;-73
2021/03/20 12:48:00;;;;;;;5.03;1.25;;;21.40;48.40;;;;;;5047629;28;20029;-73
2021/03/20 12:50:25;;;;;;;2.72;1.45;;;21.40;48.40;;;;;;5031861;28;20039;-73
2021/03/20 12:52:51;;;;;;;7.15;1.67;;;21.50;48.40;;;;;;5051099;28;20107;-73
2021/03/20 12:55:17;;;;;;;4.68;1.25;;;21.50;48.30;;;;;;5050198;28;20451;-72
2021/03/20 12:57:42;;;;;;;2.55;1.23;;;21.50;48.30;;;;;;5051302;28;20102;-73
2021/03/20 13:00:19;;;;;;;2.38;1.20;;;21.50;48.80;;;;;;5051257;28;20025;-73
2021/03/20 13:02:45;;;;;;;6.53;1.33;;;21.50;48.30;;;;;;5019682;28;20033;-74
2021/03/20 13:05:16;;;;;;;4.75;1.08;;;21.50;48.30;;;;;;5047852;28;20429;-74
2021/03/20 13:07:42;;;;;;;3.42;1.45;;;21.50;48.10;;;;;;5028940;28;20134;-74
2021/03/20 13:10:08;;;;;;;2.67;1.25;;;21.50;48.00;;;;;;5050553;28;20388;-74
2021/03/20 13:12:33;;;;;;;2.08;1.10;;;21.60;48.00;;;;;;5049169;28;20467;-73
2021/03/20 13:14:59;;;;;;;5.43;1.48;;;21.60;47.90;;;;;;5049678;28;20088;-73
2021/03/20 13:17:25;;;;;;;3.40;1.10;;;21.60;47.80;;;;;;5050364;28;20643;-73
2021/03/20 13:19:50;;;;;;;1.90;1.08;;;21.60;47.80;;;;;;5050821;28;20055;-73
2021/03/20 13:22:16;;;;;;;2.72;0.90;;;21.60;47.80;;;;;;5049671;28;20063;-73
2021/03/20 13:24:41;;;;;;;1.55;0.85;;;21.60;47.70;;;;;;5051300;28;20472;-74
2021/03/20 13:27:08;;;;;;;3.78;1.33;;;21.60;47.40;;;;;;5050894;28;20025;-74
2021/03/20 13:29:34;;;;;;;2.75;1.20;;;21.50;47.90;;;;;;5051375;28;20083;-75
2021/03/20 13:32:00;;;;;;;1.98;1.15;;;21.50;47.50;;;;;;5048323;28;20489;-74
2021/03/20 13:34:26;;;;;;;3.22;1.08;;;21.60;47.70;;;;;;5050971;28;20103;-73